sensor_id;sensor_type;location;lat;lon;timestamp;pressure;altitude;pressure_sealevel;temperature;humidity
8160;BME280;27404;52.398;9.646;2023-04-06T00:00:18;101247.69;;;-1.05;100.00
8160;BME280;27404;52.398;9.646;2023-04-06T00:02:44;101243.81;;;-0.93;100.00
8160;BME280;27404;52.398;9.646;2023-04-06T00:05:09;101246.63;;;-0.84;100.00
8160;BME280;27404;52.398;9.646;2023-04-06T00:07:35;101242.53;;;-0.79;100.00
8160;BME280;27404;52.398;9.646;2023-04-06T00:10:01;101242.03;;;-1.02;100.00
8160;BME280;27404;52.398;9.646;2023-04-06T00:12:26;101239.78;;;-1.16;100.00
8160;BME280;27404;52.398;9.646;2023-04-06T00:14:52;101237.00;;;-1.35;100.00
8160;BME280;27404;52.398;9.646;2023-04-06T00:17:17;101237.84;;;-1.34;100.00
8160;BME280;27404;52.398;9.646;2023-04-06T00:19:43;101236.28;;;-1.46;100.00
8160;BME280;27404;52.398;9.646;2023-04-06T00:22:08;101237.28;;;-1.47;100.00
8160;BME280;27404;52.398;9.646;2023-04-06T00:24:33;101228.81;;;-1.53;100.00
8160;BME280;27404;52.398;9.646;2023-04-06T00:26:59;101226.53;;;-1.28;100.00
8160;BME280;27404;52.398;9.646;2023-04-06T00:29:25;101221.31;;;-1.29;100.00
8160;BME280;27404;52.398;9.646;2023-04-06T00:31:50;101223.44;;;-1.33;100.00
8160;BME280;27404;52.398;9.646;2023-04-06T00:34:16;101220.34;;;-1.48;100.00
8160;BME280;27404;52.398;9.646;2023-04-06T00:36:41;101214.69;;;-1.35;100.00
8160;BME280;27404;52.398;9.646;2023-04-06T00:39:06;101223.16;;;-1.40;100.00
8160;BME280;27404;52.398;9.646;2023-04-06T00:41:32;101230.63;;;-1.43;100.00
8160;BME280;27404;52.398;9.646;2023-04-06T00:43:57;101221.19;;;-1.38;100.00
8160;BME280;27404;52.398;9.646;2023-04-06T00:46:23;101217.81;;;-1.40;100.00
8160;BME280;27404;52.398;9.646;2023-04-06T00:48:49;101218.06;;;-1.33;100.00
8160;BME280;27404;52.398;9.646;2023-04-06T00:51:14;101224.88;;;-1.39;100.00
8160;BME280;27404;52.398;9.646;2023-04-06T00:53:40;101213.16;;;-1.57;100.00
8160;BME280;27404;52.398;9.646;2023-04-06T00:56:05;101209.06;;;-1.71;100.00
8160;BME280;27404;52.398;9.646;2023-04-06T00:58:31;101213.41;;;-1.80;100.00
8160;BME280;27404;52.398;9.646;2023-04-06T01:00:57;101213.00;;;-1.85;100.00
8160;BME280;27404;52.398;9.646;2023-04-06T01:03:23;101205.09;;;-1.87;100.00
8160;BME280;27404;52.398;9.646;2023-04-06T01:05:48;101202.72;;;-1.90;100.00
8160;BME280;27404;52.398;9.646;2023-04-06T01:08:14;101201.88;;;-1.81;100.00
8160;BME280;27404;52.398;9.646;2023-04-06T01:10:39;101203.44;;;-1.68;100.00
8160;BME280;27404;52.398;9.646;2023-04-06T01:13:05;101188.75;;;-1.84;100.00
8160;BME280;27404;52.398;9.646;2023-04-06T01:15:32;101193.09;;;-1.92;100.00
8160;BME280;27404;52.398;9.646;2023-04-06T01:17:58;101183.94;;;-1.80;100.00
8160;BME280;27404;52.398;9.646;2023-04-06T01:20:24;101186.63;;;-1.90;100.00
8160;BME280;27404;52.398;9.646;2023-04-06T01:22:49;101187.19;;;-1.96;100.00
8160;BME280;27404;52.398;9.646;2023-04-06T01:25:15;101194.09;;;-1.64;100.00
8160;BME280;27404;52.398;9.646;2023-04-06T01:27:40;101192.41;;;-1.65;100.00
8160;BME280;27404;52.398;9.646;2023-04-06T01:30:06;101182.97;;;-1.59;100.00
8160;BME280;27404;52.398;9.646;2023-04-06T01:32:32;101192.13;;;-1.72;100.00
8160;BME280;27404;52.398;9.646;2023-04-06T01:34:58;101192.00;;;-1.70;100.00
8160;BME280;27404;52.398;9.646;2023-04-06T01:37:23;101187.47;;;-1.80;100.00
8160;BME280;27404;52.398;9.646;2023-04-06T01:39:50;101180.84;;;-1.75;100.00
8160;BME280;27404;52.398;9.646;2023-04-06T01:42:15;101187.63;;;-1.71;100.00
8160;BME280;27404;52.398;9.646;2023-04-06T01:44:41;101185.91;;;-1.82;100.00
8160;BME280;27404;52.398;9.646;2023-04-06T01:47:06;101188.63;;;-1.72;100.00
8160;BME280;27404;52.398;9.646;2023-04-06T01:49:32;101182.25;;;-1.71;100.00
8160;BME280;27404;52.398;9.646;2023-04-06T01:51:57;101181.25;;;-1.80;100.00
8160;BME280;27404;52.398;9.646;2023-04-06T01:54:23;101180.84;;;-1.95;100.00
8160;BME280;27404;52.398;9.646;2023-04-06T01:56:48;101186.47;;;-2.08;100.00
8160;BME280;27404;52.398;9.646;2023-04-06T01:59:15;101182.69;;;-1.86;100.00
8160;BME280;27404;52.398;9.646;2023-04-06T02:01:41;101180.13;;;-1.97;100.00
8160;BME280;27404;52.398;9.646;2023-04-06T02:04:06;101186.75;;;-2.11;100.00
8160;BME280;27404;52.398;9.646;2023-04-06T02:06:31;101178.44;;;-1.98;100.00
8160;BME280;27404;52.398;9.646;2023-04-06T02:08:57;101182.97;;;-1.69;100.00
8160;BME280;27404;52.398;9.646;2023-04-06T02:11:22;101184.78;;;-1.70;100.00
8160;BME280;27404;52.398;9.646;2023-04-06T02:13:48;101176.75;;;-1.89;100.00
8160;BME280;27404;52.398;9.646;2023-04-06T02:16:13;101173.06;;;-1.88;100.00
8160;BME280;27404;52.398;9.646;2023-04-06T02:18:39;101168.72;;;-1.99;100.00
8160;BME280;27404;52.398;9.646;2023-04-06T02:21:05;101163.19;;;-1.98;100.00
8160;BME280;27404;52.398;9.646;2023-04-06T02:23:30;101163.34;;;-2.09;100.00
8160;BME280;27404;52.398;9.646;2023-04-06T02:25:56;101165.03;;;-2.08;100.00
8160;BME280;27404;52.398;9.646;2023-04-06T02:28:21;101160.09;;;-2.13;100.00
8160;BME280;27404;52.398;9.646;2023-04-06T02:30:47;101167.56;;;-2.16;100.00
8160;BME280;27404;52.398;9.646;2023-04-06T02:33:12;101159.81;;;-2.10;100.00
8160;BME280;27404;52.398;9.646;2023-04-06T02:35:38;101159.94;;;-2.21;100.00
8160;BME280;27404;52.398;9.646;2023-04-06T02:38:03;101157.25;;;-2.31;100.00
8160;BME280;27404;52.398;9.646;2023-04-06T02:40:28;101158.66;;;-2.27;100.00
8160;BME280;27404;52.398;9.646;2023-04-06T02:42:54;101154.28;;;-2.38;100.00
8160;BME280;27404;52.398;9.646;2023-04-06T02:45:19;101146.66;;;-2.42;100.00
8160;BME280;27404;52.398;9.646;2023-04-06T02:47:45;101150.31;;;-2.43;100.00
8160;BME280;27404;52.398;9.646;2023-04-06T02:50:11;101153.53;;;-2.49;100.00
8160;BME280;27404;52.398;9.646;2023-04-06T02:52:36;101149.38;;;-2.22;100.00
8160;BME280;27404;52.398;9.646;2023-04-06T02:55:02;101148.94;;;-2.28;100.00
8160;BME280;27404;52.398;9.646;2023-04-06T02:57:27;101149.94;;;-1.99;100.00
8160;BME280;27404;52.398;9.646;2023-04-06T02:59:53;101150.66;;;-2.07;100.00
8160;BME280;27404;52.398;9.646;2023-04-06T03:02:18;101149.09;;;-2.19;100.00
8160;BME280;27404;52.398;9.646;2023-04-06T03:04:44;101149.25;;;-2.01;100.00
8160;BME280;27404;52.398;9.646;2023-04-06T03:07:09;101148.25;;;-1.90;100.00
8160;BME280;27404;52.398;9.646;2023-04-06T03:09:37;101141.91;;;-1.80;100.00
8160;BME280;27404;52.398;9.646;2023-04-06T03:12:02;101135.41;;;-1.77;100.00
8160;BME280;27404;52.398;9.646;2023-04-06T03:14:28;101141.34;;;-1.73;100.00
8160;BME280;27404;52.398;9.646;2023-04-06T03:16:53;101139.22;;;-1.99;100.00
8160;BME280;27404;52.398;9.646;2023-04-06T03:19:19;101134.56;;;-1.87;100.00
8160;BME280;27404;52.398;9.646;2023-04-06T03:21:44;101137.41;;;-1.69;100.00
8160;BME280;27404;52.398;9.646;2023-04-06T03:24:10;101137.78;;;-1.64;100.00
8160;BME280;27404;52.398;9.646;2023-04-06T03:26:35;101134.56;;;-1.68;100.00
8160;BME280;27404;52.398;9.646;2023-04-06T03:29:01;101133.56;;;-1.67;100.00
8160;BME280;27404;52.398;9.646;2023-04-06T03:31:26;101141.47;;;-1.55;100.00
8160;BME280;27404;52.398;9.646;2023-04-06T03:33:52;101142.00;;;-1.52;100.00
8160;BME280;27404;52.398;9.646;2023-04-06T03:36:18;101135.22;;;-1.36;100.00
8160;BME280;27404;52.398;9.646;2023-04-06T03:38:43;101140.75;;;-1.47;100.00
8160;BME280;27404;52.398;9.646;2023-04-06T03:41:08;101134.09;;;-1.43;100.00
8160;BME280;27404;52.398;9.646;2023-04-06T03:43:34;101136.47;;;-1.30;100.00
8160;BME280;27404;52.398;9.646;2023-04-06T03:46:00;101137.44;;;-1.31;100.00
8160;BME280;27404;52.398;9.646;2023-04-06T03:48:25;101140.19;;;-1.51;100.00
8160;BME280;27404;52.398;9.646;2023-04-06T03:50:50;101146.16;;;-1.67;100.00
8160;BME280;27404;52.398;9.646;2023-04-06T03:53:16;101139.06;;;-1.58;100.00
8160;BME280;27404;52.398;9.646;2023-04-06T03:55:41;101138.94;;;-1.67;100.00
8160;BME280;27404;52.398;9.646;2023-04-06T03:58:07;101142.72;;;-1.50;100.00
8160;BME280;27404;52.398;9.646;2023-04-06T04:00:32;101143.56;;;-1.59;100.00
8160;BME280;27404;52.398;9.646;2023-04-06T04:02:58;101143.47;;;-1.67;100.00
8160;BME280;27404;52.398;9.646;2023-04-06T04:05:24;101144.03;;;-1.73;100.00
8160;BME280;27404;52.398;9.646;2023-04-06T04:07:51;101141.34;;;-1.73;100.00
8160;BME280;27404;52.398;9.646;2023-04-06T04:10:17;101146.13;;;-1.57;100.00
8160;BME280;27404;52.398;9.646;2023-04-06T04:12:42;101139.34;;;-1.52;100.00
8160;BME280;27404;52.398;9.646;2023-04-06T04:15:08;101148.94;;;-1.59;100.00
8160;BME280;27404;52.398;9.646;2023-04-06T04:17:33;101150.75;;;-1.50;100.00
8160;BME280;27404;52.398;9.646;2023-04-06T04:19:59;101153.03;;;-1.45;100.00
8160;BME280;27404;52.398;9.646;2023-04-06T04:22:24;101153.88;;;-1.54;100.00
8160;BME280;27404;52.398;9.646;2023-04-06T04:24:50;101149.34;;;-1.54;100.00
8160;BME280;27404;52.398;9.646;2023-04-06T04:27:15;101148.06;;;-1.40;100.00
8160;BME280;27404;52.398;9.646;2023-04-06T04:29:41;101151.63;;;-1.49;100.00
8160;BME280;27404;52.398;9.646;2023-04-06T04:32:06;101150.75;;;-1.50;100.00
8160;BME280;27404;52.398;9.646;2023-04-06T04:34:31;101148.69;;;-1.75;100.00
8160;BME280;27404;52.398;9.646;2023-04-06T04:36:58;101150.66;;;-1.77;100.00
8160;BME280;27404;52.398;9.646;2023-04-06T04:39:23;101151.81;;;-2.00;100.00
8160;BME280;27404;52.398;9.646;2023-04-06T04:41:48;101150.78;;;-2.18;100.00
8160;BME280;27404;52.398;9.646;2023-04-06T04:44:14;101147.56;;;-2.02;100.00
8160;BME280;27404;52.398;9.646;2023-04-06T04:46:40;101144.59;;;-1.80;100.00
8160;BME280;27404;52.398;9.646;2023-04-06T04:49:06;101146.41;;;-1.80;100.00
8160;BME280;27404;52.398;9.646;2023-04-06T04:51:32;101143.84;;;-1.62;100.00
8160;BME280;27404;52.398;9.646;2023-04-06T04:53:57;101142.56;;;-1.38;100.00
8160;BME280;27404;52.398;9.646;2023-04-06T04:56:23;101144.41;;;-1.39;100.00
8160;BME280;27404;52.398;9.646;2023-04-06T04:58:48;101140.28;;;-1.33;100.00
8160;BME280;27404;52.398;9.646;2023-04-06T05:01:14;101138.75;;;-1.36;100.00
8160;BME280;27404;52.398;9.646;2023-04-06T05:03:39;101148.63;;;-1.36;100.00
8160;BME280;27404;52.398;9.646;2023-04-06T05:06:05;101137.44;;;-1.22;100.00
8160;BME280;27404;52.398;9.646;2023-04-06T05:08:31;101144.91;;;-1.15;100.00
8160;BME280;27404;52.398;9.646;2023-04-06T05:10:56;101142.34;;;-1.17;100.00
8160;BME280;27404;52.398;9.646;2023-04-06T05:13:22;101136.97;;;-1.07;100.00
8160;BME280;27404;52.398;9.646;2023-04-06T05:15:48;101142.44;;;-0.99;100.00
8160;BME280;27404;52.398;9.646;2023-04-06T05:18:13;101138.31;;;-0.93;100.00
8160;BME280;27404;52.398;9.646;2023-04-06T05:20:39;101143.25;;;-0.88;100.00
8160;BME280;27404;52.398;9.646;2023-04-06T05:23:04;101141.53;;;-0.90;100.00
8160;BME280;27404;52.398;9.646;2023-04-06T05:25:30;101145.75;;;-0.77;100.00
8160;BME280;27404;52.398;9.646;2023-04-06T05:27:56;101139.38;;;-0.76;100.00
8160;BME280;27404;52.398;9.646;2023-04-06T05:30:21;101144.38;;;-0.63;100.00
8160;BME280;27404;52.398;9.646;2023-04-06T05:32:47;101149.00;;;-0.73;100.00
8160;BME280;27404;52.398;9.646;2023-04-06T05:35:13;101135.81;;;-0.67;100.00
8160;BME280;27404;52.398;9.646;2023-04-06T05:37:38;101138.09;;;-0.44;100.00
8160;BME280;27404;52.398;9.646;2023-04-06T05:40:05;101133.50;;;-0.34;100.00
8160;BME280;27404;52.398;9.646;2023-04-06T05:42:40;101131.94;;;-0.36;100.00
8160;BME280;27404;52.398;9.646;2023-04-06T05:45:10;101135.09;;;-0.41;100.00
8160;BME280;27404;52.398;9.646;2023-04-06T05:47:36;101135.94;;;-0.22;100.00
8160;BME280;27404;52.398;9.646;2023-04-06T05:50:02;101137.28;;;-0.08;100.00
8160;BME280;27404;52.398;9.646;2023-04-06T05:52:27;101142.97;;;-0.11;100.00
8160;BME280;27404;52.398;9.646;2023-04-06T05:54:53;101144.78;;;-0.12;100.00
8160;BME280;27404;52.398;9.646;2023-04-06T05:57:19;101141.56;;;-0.16;100.00
8160;BME280;27404;52.398;9.646;2023-04-06T05:59:44;101139.56;;;0.05;100.00
8160;BME280;27404;52.398;9.646;2023-04-06T06:02:10;101143.84;;;0.16;100.00
8160;BME280;27404;52.398;9.646;2023-04-06T06:04:35;101143.38;;;0.38;100.00
8160;BME280;27404;52.398;9.646;2023-04-06T06:07:01;101142.22;;;0.67;100.00
8160;BME280;27404;52.398;9.646;2023-04-06T06:09:27;101145.84;;;3.19;100.00
8160;BME280;27404;52.398;9.646;2023-04-06T06:11:52;101147.81;;;6.15;100.00
8160;BME280;27404;52.398;9.646;2023-04-06T06:14:18;101148.78;;;8.45;78.84
8160;BME280;27404;52.398;9.646;2023-04-06T06:16:43;101157.75;;;9.27;63.89
8160;BME280;27404;52.398;9.646;2023-04-06T06:19:09;101166.19;;;10.48;60.20
8160;BME280;27404;52.398;9.646;2023-04-06T06:21:34;101164.16;;;11.50;54.01
8160;BME280;27404;52.398;9.646;2023-04-06T06:23:59;101169.63;;;11.50;51.16
8160;BME280;27404;52.398;9.646;2023-04-06T06:26:25;101162.03;;;9.61;53.20
8160;BME280;27404;52.398;9.646;2023-04-06T06:28:51;101159.38;;;7.38;57.03
8160;BME280;27404;52.398;9.646;2023-04-06T06:31:16;101153.16;;;5.72;64.12
8160;BME280;27404;52.398;9.646;2023-04-06T06:33:42;101153.88;;;4.84;67.98
8160;BME280;27404;52.398;9.646;2023-04-06T06:36:07;101149.25;;;4.31;71.95
8160;BME280;27404;52.398;9.646;2023-04-06T06:38:33;101152.41;;;3.96;77.57
8160;BME280;27404;52.398;9.646;2023-04-06T06:40:58;101154.50;;;3.86;83.69
8160;BME280;27404;52.398;9.646;2023-04-06T06:43:24;101148.25;;;3.46;83.89
8160;BME280;27404;52.398;9.646;2023-04-06T06:45:49;101155.94;;;3.34;87.31
8160;BME280;27404;52.398;9.646;2023-04-06T06:48:15;101153.09;;;3.27;88.13
8160;BME280;27404;52.398;9.646;2023-04-06T06:50:41;101156.97;;;3.24;90.07
8160;BME280;27404;52.398;9.646;2023-04-06T06:53:06;101147.63;;;3.35;89.36
8160;BME280;27404;52.398;9.646;2023-04-06T06:55:31;101150.88;;;3.31;89.33
8160;BME280;27404;52.398;9.646;2023-04-06T06:57:57;101151.50;;;3.41;90.21
8160;BME280;27404;52.398;9.646;2023-04-06T07:00:22;101143.66;;;3.63;90.33
8160;BME280;27404;52.398;9.646;2023-04-06T07:02:48;101144.69;;;3.53;87.24
8160;BME280;27404;52.398;9.646;2023-04-06T07:05:14;101146.22;;;3.48;88.00
8160;BME280;27404;52.398;9.646;2023-04-06T07:07:40;101145.72;;;3.52;87.62
8160;BME280;27404;52.398;9.646;2023-04-06T07:10:07;101140.56;;;3.66;89.27
8160;BME280;27404;52.398;9.646;2023-04-06T07:12:33;101144.13;;;3.66;87.13
8160;BME280;27404;52.398;9.646;2023-04-06T07:14:58;101133.06;;;3.76;88.47
8160;BME280;27404;52.398;9.646;2023-04-06T07:17:23;101133.53;;;3.88;90.08
8160;BME280;27404;52.398;9.646;2023-04-06T07:19:49;101139.66;;;4.05;88.12
8160;BME280;27404;52.398;9.646;2023-04-06T07:22:14;101140.69;;;4.04;85.23
8160;BME280;27404;52.398;9.646;2023-04-06T07:24:40;101140.06;;;4.17;86.43
8160;BME280;27404;52.398;9.646;2023-04-06T07:27:05;101138.81;;;4.28;85.61
8160;BME280;27404;52.398;9.646;2023-04-06T07:29:31;101135.91;;;4.29;83.43
8160;BME280;27404;52.398;9.646;2023-04-06T07:31:56;101131.13;;;4.17;81.79
8160;BME280;27404;52.398;9.646;2023-04-06T07:34:22;101130.50;;;4.29;83.51
8160;BME280;27404;52.398;9.646;2023-04-06T07:36:47;101131.16;;;4.32;82.56
8160;BME280;27404;52.398;9.646;2023-04-06T07:39:13;101125.03;;;4.38;81.23
8160;BME280;27404;52.398;9.646;2023-04-06T07:41:39;101127.22;;;4.34;80.20
8160;BME280;27404;52.398;9.646;2023-04-06T07:44:05;101129.50;;;4.45;81.73
8160;BME280;27404;52.398;9.646;2023-04-06T07:46:30;101134.50;;;4.57;80.02
8160;BME280;27404;52.398;9.646;2023-04-06T07:48:57;101136.00;;;4.59;78.88
8160;BME280;27404;52.398;9.646;2023-04-06T07:51:23;101135.72;;;4.69;79.69
8160;BME280;27404;52.398;9.646;2023-04-06T07:53:50;101135.84;;;4.91;81.53
8160;BME280;27404;52.398;9.646;2023-04-06T07:56:15;101130.31;;;4.99;81.44
8160;BME280;27404;52.398;9.646;2023-04-06T07:58:41;101135.75;;;4.99;80.99
8160;BME280;27404;52.398;9.646;2023-04-06T08:01:06;101134.38;;;5.18;83.01
8160;BME280;27404;52.398;9.646;2023-04-06T08:03:34;101135.75;;;5.29;80.11
8160;BME280;27404;52.398;9.646;2023-04-06T08:05:59;101131.19;;;5.30;78.89
8160;BME280;27404;52.398;9.646;2023-04-06T08:08:25;101135.94;;;5.28;76.96
8160;BME280;27404;52.398;9.646;2023-04-06T08:10:50;101131.25;;;5.37;76.24
8160;BME280;27404;52.398;9.646;2023-04-06T08:13:16;101144.50;;;5.46;76.62
8160;BME280;27404;52.398;9.646;2023-04-06T08:15:41;101143.47;;;5.62;76.91
8160;BME280;27404;52.398;9.646;2023-04-06T08:18:08;101146.81;;;5.64;74.93
8160;BME280;27404;52.398;9.646;2023-04-06T08:20:33;101141.91;;;5.75;74.44
8160;BME280;27404;52.398;9.646;2023-04-06T08:22:58;101146.22;;;5.84;76.04
8160;BME280;27404;52.398;9.646;2023-04-06T08:25:24;101140.88;;;5.91;74.98
8160;BME280;27404;52.398;9.646;2023-04-06T08:27:49;101134.13;;;6.02;74.87
8160;BME280;27404;52.398;9.646;2023-04-06T08:30:15;101131.19;;;6.03;75.07
8160;BME280;27404;52.398;9.646;2023-04-06T08:32:41;101138.44;;;6.18;75.35
8160;BME280;27404;52.398;9.646;2023-04-06T08:35:06;101133.59;;;6.13;73.09
8160;BME280;27404;52.398;9.646;2023-04-06T08:37:32;101135.25;;;6.36;74.11
8160;BME280;27404;52.398;9.646;2023-04-06T08:39:58;101141.03;;;6.48;72.18
8160;BME280;27404;52.398;9.646;2023-04-06T08:42:25;101134.19;;;6.59;72.09
8160;BME280;27404;52.398;9.646;2023-04-06T08:44:51;101136.75;;;6.60;70.57
8160;BME280;27404;52.398;9.646;2023-04-06T08:47:18;101129.66;;;6.94;72.16
8160;BME280;27404;52.398;9.646;2023-04-06T08:49:45;101130.16;;;7.11;70.54
8160;BME280;27404;52.398;9.646;2023-04-06T08:52:11;101134.16;;;7.16;68.22
8160;BME280;27404;52.398;9.646;2023-04-06T08:54:38;101127.38;;;7.40;70.22
8160;BME280;27404;52.398;9.646;2023-04-06T08:57:04;101126.78;;;7.51;70.35
8160;BME280;27404;52.398;9.646;2023-04-06T08:59:31;101136.06;;;7.70;68.31
8160;BME280;27404;52.398;9.646;2023-04-06T09:01:57;101123.53;;;7.83;68.20
8160;BME280;27404;52.398;9.646;2023-04-06T09:04:24;101131.34;;;7.99;67.84
8160;BME280;27404;52.398;9.646;2023-04-06T09:06:50;101133.25;;;8.12;66.46
8160;BME280;27404;52.398;9.646;2023-04-06T09:09:15;101121.94;;;8.09;66.03
8160;BME280;27404;52.398;9.646;2023-04-06T09:11:45;101125.91;;;8.13;65.59
8160;BME280;27404;52.398;9.646;2023-04-06T09:14:11;101123.59;;;8.17;65.83
8160;BME280;27404;52.398;9.646;2023-04-06T09:16:44;101118.78;;;8.19;64.25
8160;BME280;27404;52.398;9.646;2023-04-06T09:19:11;101121.94;;;8.36;63.94
8160;BME280;27404;52.398;9.646;2023-04-06T09:21:37;101120.69;;;8.45;62.88
8160;BME280;27404;52.398;9.646;2023-04-06T09:24:03;101116.94;;;8.66;63.21
8160;BME280;27404;52.398;9.646;2023-04-06T09:26:29;101116.94;;;8.80;63.00
8160;BME280;27404;52.398;9.646;2023-04-06T09:28:57;101117.31;;;8.97;62.20
8160;BME280;27404;52.398;9.646;2023-04-06T09:31:28;101120.88;;;8.97;62.07
8160;BME280;27404;52.398;9.646;2023-04-06T09:33:54;101119.81;;;9.05;60.51
8160;BME280;27404;52.398;9.646;2023-04-06T09:36:20;101124.59;;;9.23;61.50
8160;BME280;27404;52.398;9.646;2023-04-06T09:38:57;101116.53;;;9.42;60.72
8160;BME280;27404;52.398;9.646;2023-04-06T09:41:27;101110.88;;;9.43;59.17
8160;BME280;27404;52.398;9.646;2023-04-06T09:44:03;101109.63;;;9.39;57.28
8160;BME280;27404;52.398;9.646;2023-04-06T09:46:32;101108.25;;;9.62;57.61
8160;BME280;27404;52.398;9.646;2023-04-06T09:48:59;101114.09;;;9.72;54.78
8160;BME280;27404;52.398;9.646;2023-04-06T09:51:26;101112.31;;;9.91;57.64
8160;BME280;27404;52.398;9.646;2023-04-06T09:53:56;101113.00;;;10.12;55.81
8160;BME280;27404;52.398;9.646;2023-04-06T09:56:28;101103.41;;;10.03;55.98
8160;BME280;27404;52.398;9.646;2023-04-06T09:59:02;101108.16;;;10.14;56.37
8160;BME280;27404;52.398;9.646;2023-04-06T10:01:29;101110.13;;;10.32;55.74
8160;BME280;27404;52.398;9.646;2023-04-06T10:04:24;101103.53;;;10.15;53.19
8160;BME280;27404;52.398;9.646;2023-04-06T10:06:52;101112.09;;;10.25;54.37
8160;BME280;27404;52.398;9.646;2023-04-06T10:09:21;101099.19;;;10.39;53.98
8160;BME280;27404;52.398;9.646;2023-04-06T10:11:48;101101.75;;;10.27;55.37
8160;BME280;27404;52.398;9.646;2023-04-06T10:14:15;101097.50;;;10.31;53.95
8160;BME280;27404;52.398;9.646;2023-04-06T10:16:41;101095.72;;;10.50;53.31
8160;BME280;27404;52.398;9.646;2023-04-06T10:19:13;101096.72;;;10.56;52.83
8160;BME280;27404;52.398;9.646;2023-04-06T10:21:44;101095.47;;;10.96;53.75
8160;BME280;27404;52.398;9.646;2023-04-06T10:24:10;101095.16;;;10.86;52.26
8160;BME280;27404;52.398;9.646;2023-04-06T10:26:37;101098.06;;;10.91;51.40
8160;BME280;27404;52.398;9.646;2023-04-06T10:29:03;101089.50;;;10.87;50.63
8160;BME280;27404;52.398;9.646;2023-04-06T10:31:29;101094.53;;;10.65;47.91
8160;BME280;27404;52.398;9.646;2023-04-06T10:33:59;101094.63;;;10.77;51.19
8160;BME280;27404;52.398;9.646;2023-04-06T10:36:27;101095.16;;;10.86;48.79
8160;BME280;27404;52.398;9.646;2023-04-06T10:38:58;101086.47;;;10.51;49.68
8160;BME280;27404;52.398;9.646;2023-04-06T10:41:24;101085.44;;;10.46;52.50
8160;BME280;27404;52.398;9.646;2023-04-06T10:43:57;101084.09;;;10.99;51.13
8160;BME280;27404;52.398;9.646;2023-04-06T10:46:26;101091.91;;;10.95;50.26
8160;BME280;27404;52.398;9.646;2023-04-06T10:48:52;101091.91;;;10.95;47.65
8160;BME280;27404;52.398;9.646;2023-04-06T10:51:18;101093.72;;;11.02;45.99
8160;BME280;27404;52.398;9.646;2023-04-06T10:53:47;101083.19;;;11.05;47.89
8160;BME280;27404;52.398;9.646;2023-04-06T10:56:16;101073.81;;;10.76;45.71
8160;BME280;27404;52.398;9.646;2023-04-06T10:58:49;101080.66;;;10.85;43.86
8160;BME280;27404;52.398;9.646;2023-04-06T11:01:16;101069.66;;;10.92;43.69
8160;BME280;27404;52.398;9.646;2023-04-06T11:03:47;101073.28;;;10.86;43.32
8160;BME280;27404;52.398;9.646;2023-04-06T11:06:23;101076.09;;;10.79;41.94
8160;BME280;27404;52.398;9.646;2023-04-06T11:08:49;101077.31;;;10.83;42.51
8160;BME280;27404;52.398;9.646;2023-04-06T11:11:17;101077.78;;;10.80;43.29
8160;BME280;27404;52.398;9.646;2023-04-06T11:16:15;101059.00;;;11.02;43.92
8160;BME280;27404;52.398;9.646;2023-04-06T11:18:54;101060.34;;;10.74;46.01
8160;BME280;27404;52.398;9.646;2023-04-06T11:24:18;101063.19;;;11.05;44.16
8160;BME280;27404;52.398;9.646;2023-04-06T11:26:57;101060.00;;;11.08;43.58
8160;BME280;27404;52.398;9.646;2023-04-06T11:29:29;101060.53;;;10.98;43.76
8160;BME280;27404;52.398;9.646;2023-04-06T11:32:00;101062.41;;;10.98;46.10
8160;BME280;27404;52.398;9.646;2023-04-06T11:34:25;101057.09;;;11.03;45.17
8160;BME280;27404;52.398;9.646;2023-04-06T11:36:59;101050.56;;;11.04;45.05
8160;BME280;27404;52.398;9.646;2023-04-06T11:39:26;101062.56;;;11.03;44.49
8160;BME280;27404;52.398;9.646;2023-04-06T11:41:54;101048.97;;;11.15;43.50
8160;BME280;27404;52.398;9.646;2023-04-06T11:44:35;101044.13;;;11.17;44.39
8160;BME280;27404;52.398;9.646;2023-04-06T11:47:02;101047.81;;;11.22;43.98
8160;BME280;27404;52.398;9.646;2023-04-06T11:49:29;101043.25;;;11.16;44.47
8160;BME280;27404;52.398;9.646;2023-04-06T11:51:56;101049.84;;;11.27;43.46
8160;BME280;27404;52.398;9.646;2023-04-06T11:54:35;101035.50;;;11.13;43.87
8160;BME280;27404;52.398;9.646;2023-04-06T11:57:02;101020.63;;;11.09;45.05
8160;BME280;27404;52.398;9.646;2023-04-06T11:59:28;101039.09;;;11.14;45.62
8160;BME280;27404;52.398;9.646;2023-04-06T12:01:54;101036.72;;;11.17;45.60
8160;BME280;27404;52.398;9.646;2023-04-06T12:04:20;101035.34;;;11.26;45.34
8160;BME280;27404;52.398;9.646;2023-04-06T12:06:45;101024.44;;;11.38;46.30
8160;BME280;27404;52.398;9.646;2023-04-06T12:09:11;101023.97;;;11.41;45.33
8160;BME280;27404;52.398;9.646;2023-04-06T12:11:36;101023.53;;;11.45;45.90
8160;BME280;27404;52.398;9.646;2023-04-06T12:14:02;101036.25;;;11.39;44.77
8160;BME280;27404;52.398;9.646;2023-04-06T12:16:30;101029.09;;;11.38;44.81
8160;BME280;27404;52.398;9.646;2023-04-06T12:18:56;101022.72;;;11.25;43.12
8160;BME280;27404;52.398;9.646;2023-04-06T12:21:21;101014.16;;;11.22;43.49
8160;BME280;27404;52.398;9.646;2023-04-06T12:23:47;101022.38;;;11.03;44.73
8160;BME280;27404;52.398;9.646;2023-04-06T12:26:12;101013.41;;;11.15;44.59
8160;BME280;27404;52.398;9.646;2023-04-06T12:28:38;101019.53;;;11.29;44.45
8160;BME280;27404;52.398;9.646;2023-04-06T12:31:03;101004.47;;;11.38;44.17
8160;BME280;27404;52.398;9.646;2023-04-06T12:33:29;101018.97;;;11.38;44.39
8160;BME280;27404;52.398;9.646;2023-04-06T12:35:54;101019.22;;;11.37;43.87
8160;BME280;27404;52.398;9.646;2023-04-06T12:38:19;101007.97;;;11.57;45.36
8160;BME280;27404;52.398;9.646;2023-04-06T12:40:46;101013.47;;;11.69;44.11
8160;BME280;27404;52.398;9.646;2023-04-06T12:43:11;101017.41;;;11.73;44.65
8160;BME280;27404;52.398;9.646;2023-04-06T12:45:39;101015.16;;;11.70;44.67
8160;BME280;27404;52.398;9.646;2023-04-06T12:48:04;101007.50;;;11.60;43.08
8160;BME280;27404;52.398;9.646;2023-04-06T12:50:30;101002.28;;;11.59;46.48
8160;BME280;27404;52.398;9.646;2023-04-06T12:52:56;100998.22;;;11.61;44.64
8160;BME280;27404;52.398;9.646;2023-04-06T12:55:21;101002.38;;;11.64;45.55
8160;BME280;27404;52.398;9.646;2023-04-06T12:57:47;100994.88;;;11.59;44.28